createdAt,value
2023-03-22T00:03:47.294Z,94614.00
2023-03-22T00:07:47.116Z,94614.00
2023-03-22T00:11:47.175Z,94608.00
2023-03-22T00:15:47.293Z,94610.00
2023-03-22T00:19:47.289Z,94606.00
2023-03-22T00:23:47.305Z,94608.00
2023-03-22T00:27:47.393Z,94606.00
2023-03-22T00:31:47.431Z,94606.00
2023-03-22T00:35:47.504Z,94606.00
2023-03-22T00:39:47.473Z,94602.00
2023-03-22T00:43:47.582Z,94602.00
2023-03-22T00:47:47.626Z,94600.00
2023-03-22T00:51:48.309Z,94592.00
2023-03-22T00:55:47.663Z,94592.00
2023-03-22T00:59:47.709Z,94592.00
2023-03-22T01:03:47.871Z,94590.00
2023-03-22T01:07:47.816Z,94588.00
2023-03-22T01:11:47.889Z,94586.00
2023-03-22T01:15:47.989Z,94583.00
2023-03-22T01:19:47.946Z,94581.00
2023-03-22T01:23:48.057Z,94581.00
2023-03-22T01:27:48.290Z,94581.00
2023-03-22T01:31:51.282Z,94583.00
2023-03-22T01:35:48.116Z,94581.00
2023-03-22T01:39:48.053Z,94583.00
2023-03-22T01:43:48.025Z,94583.00
2023-03-22T01:47:48.024Z,94585.00
2023-03-22T01:51:47.970Z,94585.00
2023-03-22T01:55:48.323Z,94586.00
2023-03-22T01:59:47.880Z,94586.00
2023-03-22T02:03:47.859Z,94583.00
2023-03-22T02:07:47.910Z,94579.00
2023-03-22T02:11:47.789Z,94577.00
2023-03-22T02:15:48.345Z,94579.00
2023-03-22T02:19:47.677Z,94577.00
2023-03-22T02:23:47.672Z,94581.00
2023-03-22T02:27:47.625Z,94585.00
2023-03-22T02:31:47.592Z,94586.00
2023-03-22T02:35:47.888Z,94590.00
2023-03-22T02:39:48.319Z,94598.00
2023-03-22T02:43:48.328Z,94588.00
2023-03-22T02:47:47.431Z,94590.00
2023-03-22T02:51:47.411Z,94586.00
2023-03-22T02:55:47.386Z,94583.00
2023-03-22T02:59:47.351Z,94583.00
2023-03-22T03:03:47.269Z,94577.00
2023-03-22T03:07:47.295Z,94577.00
2023-03-22T03:11:47.310Z,94573.00
2023-03-22T03:15:47.181Z,94573.00
2023-03-22T03:19:47.260Z,94571.00
2023-03-22T03:23:47.244Z,94563.00
2023-03-22T03:27:47.299Z,94563.00
2023-03-22T03:31:47.495Z,94567.00
2023-03-22T03:35:47.436Z,94571.00
2023-03-22T03:39:47.428Z,94573.00
2023-03-22T03:43:47.460Z,94571.00
2023-03-22T03:47:47.592Z,94569.00
2023-03-22T03:51:47.595Z,94569.00
2023-03-22T03:55:47.682Z,94567.00
2023-03-22T03:59:47.766Z,94561.00
2023-03-22T04:03:47.821Z,94557.00
2023-03-22T04:07:47.907Z,94559.00
2023-03-22T04:11:48.015Z,94559.00
2023-03-22T04:15:48.054Z,94561.00
2023-03-22T04:19:48.131Z,94563.00
2023-03-22T04:23:48.271Z,94561.00
2023-03-22T04:27:48.266Z,94563.00
2023-03-22T04:31:48.299Z,94561.00
2023-03-22T04:35:48.453Z,94559.00
2023-03-22T04:39:50.408Z,94563.00
2023-03-22T04:43:48.604Z,94561.00
2023-03-22T04:47:48.736Z,94563.00
2023-03-22T04:51:48.803Z,94561.00
2023-03-22T04:55:48.844Z,94557.00
2023-03-22T04:59:48.982Z,94563.00
2023-03-22T05:03:49.113Z,94569.00
2023-03-22T05:07:49.147Z,94577.00
2023-03-22T05:11:49.248Z,94575.00
2023-03-22T05:15:49.346Z,94579.00
2023-03-22T05:19:49.490Z,94575.00
2023-03-22T05:23:51.469Z,94579.00
2023-03-22T05:27:49.721Z,94579.00
2023-03-22T05:31:49.856Z,94583.00
2023-03-22T05:35:49.908Z,94585.00
2023-03-22T05:39:49.856Z,94585.00
2023-03-22T05:43:49.909Z,94585.00
2023-03-22T05:47:50.128Z,94586.00
2023-03-22T05:51:49.870Z,94590.00
2023-03-22T05:55:52.392Z,94596.00
2023-03-22T05:59:49.783Z,94598.00
2023-03-22T06:03:50.459Z,94594.00
2023-03-22T06:07:49.955Z,94598.00
2023-03-22T06:11:49.783Z,94600.00
2023-03-22T06:15:51.438Z,94602.00
2023-03-22T06:19:51.993Z,94608.00
2023-03-22T06:23:49.898Z,94608.00
2023-03-22T06:27:49.714Z,94612.00
2023-03-22T06:31:50.382Z,94610.00
2023-03-22T06:35:50.117Z,94610.00
2023-03-22T06:39:50.075Z,94602.00
2023-03-22T06:43:49.499Z,94598.00
2023-03-22T06:47:49.503Z,94598.00
2023-03-22T06:51:50.513Z,94596.00
2023-03-22T06:55:53.702Z,94592.00
2023-03-22T06:59:50.628Z,94588.00
2023-03-22T07:03:49.373Z,94586.00
2023-03-22T07:12:10.047Z,94594.00
2023-03-22T07:16:09.687Z,94590.00
2023-03-22T07:24:36.075Z,94592.00
2023-03-22T07:45:41.314Z,94583.00
2023-03-22T07:58:20.413Z,94573.00
2023-03-22T08:06:37.431Z,94569.00
2023-03-22T08:10:39.694Z,94563.00
2023-03-22T08:19:06.897Z,94567.00
2023-03-22T08:23:01.467Z,94561.00
2023-03-22T08:26:56.022Z,94563.00
2023-03-22T08:48:18.653Z,94545.00
2023-03-22T08:52:14.445Z,94531.00
2023-03-22T09:00:42.260Z,94518.00
2023-03-22T09:04:42.141Z,94512.00
2023-03-22T09:12:49.787Z,94500.00
2023-03-22T09:16:48.821Z,94496.00
2023-03-22T09:25:14.504Z,94484.00
2023-03-22T09:37:59.837Z,94463.00
2023-03-22T09:59:17.869Z,94437.00
2023-03-22T10:03:18.107Z,94433.00
2023-03-22T10:07:25.659Z,94430.00
2023-03-22T10:11:22.765Z,94424.00
2023-03-22T10:15:18.354Z,94414.00
2023-03-22T10:19:18.342Z,94404.00
2023-03-22T10:27:38.172Z,94390.00
2023-03-22T10:31:37.155Z,94382.00
2023-03-22T10:39:56.179Z,94375.00
2023-03-22T10:52:34.288Z,94355.00
2023-03-22T11:01:27.320Z,94339.00
2023-03-22T11:05:39.531Z,94334.00
2023-03-22T11:14:02.499Z,94320.00
2023-03-22T11:18:07.341Z,94322.00
2023-03-22T11:22:12.133Z,94316.00
2023-03-22T11:26:02.209Z,94308.00
2023-03-22T11:30:01.959Z,94298.00
2023-03-22T11:34:02.336Z,94290.00
2023-03-22T11:38:01.237Z,94287.00
2023-03-22T11:42:01.279Z,94279.00
2023-03-22T11:46:01.208Z,94267.00
2023-03-22T11:50:01.700Z,94263.00
2023-03-22T11:54:01.158Z,94257.00
2023-03-22T11:58:01.030Z,94253.00
2023-03-22T12:02:00.985Z,94249.00
2023-03-22T12:06:01.175Z,94243.00
2023-03-22T12:10:01.425Z,94239.00
2023-03-22T12:14:01.523Z,94232.00
2023-03-22T12:18:01.876Z,94222.00
2023-03-22T12:22:01.989Z,94216.00
2023-03-22T12:26:02.087Z,94208.00
2023-03-22T12:30:02.259Z,94206.00
2023-03-22T12:34:02.674Z,94198.00
2023-03-22T12:38:02.399Z,94186.00
2023-03-22T12:42:02.574Z,94181.00
2023-03-22T12:46:02.700Z,94171.00
2023-03-22T12:50:03.191Z,94165.00
2023-03-22T12:54:02.898Z,94157.00
2023-03-22T12:58:03.032Z,94151.00
2023-03-22T13:02:03.196Z,94145.00
2023-03-22T13:06:03.176Z,94141.00
2023-03-22T13:10:03.496Z,94137.00
2023-03-22T13:14:03.355Z,94134.00
2023-03-22T13:18:03.615Z,94130.00
2023-03-22T13:22:03.547Z,94124.00
2023-03-22T13:26:03.661Z,94120.00
2023-03-22T13:30:03.711Z,94108.00
2023-03-22T13:34:03.908Z,94100.00
2023-03-22T13:38:03.920Z,94098.00
2023-03-22T13:42:04.063Z,94090.00
2023-03-22T13:46:04.219Z,94081.00
2023-03-22T13:50:06.849Z,94069.00
2023-03-22T13:54:04.267Z,94067.00
2023-03-22T13:58:05.199Z,94065.00
2023-03-22T14:02:04.236Z,94061.00
2023-03-22T14:06:04.131Z,94059.00
2023-03-22T14:10:04.130Z,94055.00
2023-03-22T14:14:04.106Z,94047.00
2023-03-22T14:18:07.374Z,94043.00
2023-03-22T14:47:05.889Z,94020.00
2023-03-22T14:51:05.858Z,94020.00
2023-03-22T14:55:05.825Z,94016.00
2023-03-22T14:59:05.774Z,94012.00
2023-03-22T15:03:07.536Z,94006.00
2023-03-22T15:07:05.691Z,94006.00
2023-03-22T15:11:05.759Z,94000.00
2023-03-22T15:15:05.832Z,93992.00
2023-03-22T15:19:06.022Z,93996.00
2023-03-22T15:23:06.102Z,93992.00
2023-03-22T15:27:06.200Z,93992.00
2023-03-22T15:31:06.205Z,93996.00
2023-03-22T15:35:06.220Z,93996.00
2023-03-22T15:39:06.189Z,93994.00
2023-03-22T15:43:06.251Z,93988.00
2023-03-22T15:47:06.266Z,93992.00
2023-03-22T15:51:06.393Z,93994.00
2023-03-22T15:55:11.175Z,93996.00
2023-03-22T15:59:06.235Z,94002.00
2023-03-22T16:03:06.179Z,94004.00
2023-03-22T16:07:06.133Z,94006.00
2023-03-22T16:11:06.096Z,94008.00
2023-03-22T16:15:06.051Z,94012.00
2023-03-22T16:19:06.008Z,94020.00
2023-03-22T16:23:05.982Z,94028.00
2023-03-22T16:27:06.120Z,94030.00
2023-03-22T16:31:06.182Z,94036.00
2023-03-22T16:35:06.108Z,94040.00
2023-03-22T16:39:06.328Z,94040.00
2023-03-22T16:43:06.646Z,94041.00
2023-03-22T16:47:06.683Z,94051.00
2023-03-22T16:51:06.604Z,94051.00
2023-03-22T16:55:06.850Z,94057.00
2023-03-22T16:59:06.942Z,94061.00
2023-03-22T17:03:07.142Z,94067.00
2023-03-22T17:07:07.174Z,94079.00
2023-03-22T17:11:08.126Z,94085.00
2023-03-22T17:15:07.029Z,94087.00
2023-03-22T17:19:06.980Z,94083.00
2023-03-22T17:23:06.949Z,94088.00
2023-03-22T17:27:06.931Z,94094.00
2023-03-22T17:31:07.804Z,94102.00
2023-03-22T17:35:06.876Z,94104.00
2023-03-22T17:39:20.961Z,94118.00
2023-03-22T17:43:07.796Z,94122.00
2023-03-22T17:47:33.056Z,94132.00
2023-03-22T17:51:07.689Z,94136.00
2023-03-22T17:55:16.729Z,94143.00
2023-03-22T17:59:07.623Z,94155.00
2023-03-22T18:03:06.609Z,94159.00
2023-03-22T18:07:06.563Z,94167.00
2023-03-22T18:11:06.518Z,94175.00
2023-03-22T18:15:06.462Z,94186.00
2023-03-22T18:19:06.661Z,94196.00
2023-03-22T18:23:06.393Z,94198.00
2023-03-22T18:27:11.257Z,94210.00
2023-03-22T18:31:07.481Z,94218.00
2023-03-22T18:35:06.286Z,94222.00
2023-03-22T18:39:30.424Z,94226.00
2023-03-22T18:43:07.208Z,94234.00
2023-03-22T18:47:06.271Z,94239.00
2023-03-22T18:51:11.623Z,94247.00
2023-03-22T18:55:21.737Z,94249.00
2023-03-22T18:59:07.091Z,94261.00
2023-03-22T19:07:06.015Z,94255.00
2023-03-22T19:11:06.704Z,94257.00
2023-03-22T19:19:06.956Z,94263.00
2023-03-22T19:23:05.847Z,94265.00
2023-03-22T19:31:06.813Z,94261.00
2023-03-22T19:35:05.764Z,94265.00
2023-03-22T19:39:11.484Z,94273.00
2023-03-22T19:43:08.673Z,94269.00
2023-03-22T19:47:05.694Z,94267.00
2023-03-22T19:51:05.611Z,94265.00
2023-03-22T19:55:05.521Z,94271.00
2023-03-22T19:59:11.525Z,94265.00
2023-03-22T20:03:06.689Z,94267.00
2023-03-22T20:07:05.448Z,94275.00
2023-03-22T20:11:06.665Z,94273.00
2023-03-22T20:15:05.536Z,94273.00
2023-03-22T20:19:05.613Z,94277.00
2023-03-22T20:23:05.743Z,94283.00
2023-03-22T20:27:05.868Z,94287.00
2023-03-22T20:31:06.051Z,94292.00
2023-03-22T20:35:06.201Z,94298.00
2023-03-22T20:39:06.288Z,94300.00
2023-03-22T20:43:06.479Z,94302.00
2023-03-22T20:47:06.545Z,94306.00
2023-03-22T20:51:06.687Z,94306.00
2023-03-22T20:55:06.795Z,94308.00
2023-03-22T20:59:06.973Z,94312.00
2023-03-22T21:03:07.084Z,94314.00
2023-03-22T21:07:07.217Z,94314.00
2023-03-22T21:11:07.335Z,94320.00
2023-03-22T21:15:07.498Z,94324.00
2023-03-22T21:19:07.655Z,94330.00
2023-03-22T21:23:07.766Z,94334.00
2023-03-22T21:27:07.975Z,94336.00
2023-03-22T21:31:08.089Z,94341.00
2023-03-22T21:35:08.192Z,94345.00
2023-03-22T21:39:08.369Z,94345.00
2023-03-22T21:43:08.514Z,94343.00
2023-03-22T21:47:08.629Z,94347.00
2023-03-22T21:51:08.804Z,94347.00
2023-03-22T21:55:08.986Z,94351.00
2023-03-22T21:59:09.133Z,94347.00
2023-03-22T22:03:09.237Z,94349.00
2023-03-22T22:07:09.406Z,94351.00
2023-03-22T22:11:09.600Z,94355.00
2023-03-22T22:15:09.728Z,94361.00
2023-03-22T22:19:09.897Z,94363.00
2023-03-22T22:23:10.104Z,94363.00
2023-03-22T22:27:10.296Z,94365.00
2023-03-22T22:31:10.469Z,94367.00
2023-03-22T22:35:10.711Z,94367.00
2023-03-22T22:39:10.891Z,94367.00
2023-03-22T22:43:11.059Z,94363.00
2023-03-22T22:47:11.239Z,94363.00
2023-03-22T22:51:11.522Z,94361.00
2023-03-22T22:55:11.563Z,94357.00
2023-03-22T22:59:11.816Z,94357.00
2023-03-22T23:03:12.044Z,94355.00
2023-03-22T23:07:11.954Z,94359.00
2023-03-22T23:11:11.921Z,94355.00
2023-03-22T23:15:21.433Z,94353.00
2023-03-22T23:19:15.745Z,94351.00
2023-03-22T23:23:11.811Z,94351.00
2023-03-22T23:27:11.776Z,94353.00
2023-03-22T23:31:11.732Z,94359.00
2023-03-22T23:35:11.825Z,94351.00
2023-03-22T23:39:11.761Z,94349.00
2023-03-22T23:43:11.702Z,94355.00
2023-03-22T23:47:12.292Z,94357.00
2023-03-22T23:51:12.150Z,94357.00
2023-03-22T23:55:12.335Z,94361.00
2023-03-22T23:59:12.645Z,94361.00
